ATTENTION Outdoor sensors OFFLINE - ΠΡΟΣΟΧΗ Εξωτερικοί αισθητήρες ΕΚΤΟΣ ΛΕΙΤΟΥΡΓΙΑΣ
Rain From: 25-02-2018 01:00 Until: 26-02-2018 00:59 warning for: Rain Level: Yellow info button

Warning for Rain more information rain snow radar


My Other Sites:

SYKIA HOMEWEATHERSTATIONsikeaweather.alinos.eu

alinos.eualinos.eu



Nearby METAR Reports

   
LGEL - Elefsis (hel-Afb, Greece
Distance from station: E 77 km
Updated: 25-02-2018 04:50
Mostly Cloudy  
Mostly Cloudy  
   Wind: Calm
Wind: Calm
Temperature: 10°C
Dew Point: 8°C
Humidity: 88%
Barometer: 1008 hPa
Clouds: Mostly Cloudy
Visibility: More than 10 km
Cloud details: Partly Cloudy 2500 ft,
Mostly Cloudy 6000 ft
LGEL 250250Z 00000KT 9999 SCT025 BKN060 10/08 Q1008
LGRX - Araxos (civ/Afb), Greece
Distance from station: W 110 km
Updated: 25-02-2018 05:20
Mostly Cloudy  
Mostly Cloudy  
   Wind: varies 5.6 km/h
Wind: varies 5.6 km/h
Temperature: 10°C
Wind Chill: 9°C
Dew Point: 10°C
Humidity: 100%
Barometer: 1008 hPa
Clouds: Mostly Cloudy
Visibility: More than 10 km
Cloud details: Mostly Cloudy 2500 ft,
Partly Cloudy 8000 ft
LGRX 250320Z VRB03KT 9999 BKN025 SCT080 10/10 Q1008
LGAV - Athens/Elef-Ven, Greece
Distance from station: E 113 km
Updated: 25-02-2018 05:20
Mostly Cloudy  
Mostly Cloudy  
   Wind: ENE 9.3 km/h
Wind: ENE 9.3 km/h
Temperature: 10°C
Wind Chill: 9°C
Dew Point: 7°C
Humidity: 82%
Barometer: 1009 hPa
Clouds: Mostly Cloudy
Visibility: More than 10 km
Cloud details: Mostly Cloudy 4000 ft
LGAV 250320Z 07005KT 9999 BKN040 10/07 Q1009 NOSIG
LGAD - Andravida (civ/A, Greece
Distance from station: W 124 km
Updated: 25-02-2018 05:20
Mostly Cloudy  
Mostly Cloudy  
   Wind: SSE 7.4 km/h
Wind: SSE 7.4 km/h
Temperature: 10°C
Wind Chill: 9°C
Dew Point: 8°C
Humidity: 88%
Barometer: 1008 hPa
Clouds: Mostly Cloudy
Visibility: More than 10 km
Cloud details: Partly Cloudy 2000 ft,
Mostly Cloudy 7000 ft
LGAD 250320Z 16004KT 9999 SCT020 BKN070 10/08 Q1008
LGKL - Kalamata (hel-Af, Greece
Distance from station: SSW 124 km
Updated: 25-02-2018 05:20
Few Clouds  
Few Clouds  
   Wind: NNW 7.4 km/h
Wind: NNW 7.4 km/h
Temperature: 6°C
Wind Chill: 4°C
Dew Point: 5°C
Humidity: 93%
Barometer: 1009 hPa
Clouds: Few Clouds
Visibility: More than 10 km
Cloud details: Few Clouds 2500 ft
LGKL 250320Z 33004KT 9999 FEW025 06/05 Q1009
LGBL - Nea Anchialos, Greece
Distance from station: N 129 km
Updated: 25-02-2018 04:50
Mostly Cloudy  
Mostly Cloudy  
   Wind: Calm
Wind: Calm
Temperature: 8°C
Dew Point: 6°C
Humidity: 87%
Barometer: 1009 hPa
Clouds: Mostly Cloudy
Visibility: More than 10 km
Cloud details: Few Clouds 1000 ft,
Partly Cloudy 3000 ft,
Mostly Cloudy 8000 ft
LGBL 250250Z 00000KT 9999 FEW010 SCT030 BKN080 08/06 Q1009

Script developed by  Saratoga-weather.org Adapted for the template by  Weerstation Leuven

You find our weather info also at:

European Weather Network

Weather Underground

Citizen Weather Observer Program (CWOP)

HAMweather, WeatherForYou, PWS Weather

UK Metoffice